Ashboro, Indiana
Current Conditions -  °F | °C
As of 9:53 AM on Wednesday 26 Nov 2014 (Local Time) from KHUF Reporting Station
Overcast Overcast  
Wind Chill: 18°   Ceiling: 1100
Heat Index: 26°   Visibility: 10mi
Dew Point: 21°   Wind: 8mph
Humidity: 81%   Direction: 140°SE
Pressure: 30.16"   Gusts: NA
Location:  39.3787°N, 87.0992°W
Report Text: KHUF 261453Z 14007KT 10SM OVC011 M03/M06 A3016 RMK AO2 SLP220 T10331061 51006
Loading
Personal Weather Stations






























Interactive Weather Map New forecast layout! Learn more

10-Day Weather Forecast

Advertisements
Track Severe Weather on mobile